createdAt,value
2022-08-09T00:00:11.915Z,4.30
2022-08-09T00:02:42.859Z,4.10
2022-08-09T00:06:15.571Z,3.90
2022-08-09T00:08:04.538Z,4.27
2022-08-09T00:10:37.919Z,4.40
2022-08-09T00:13:12.922Z,3.83
2022-08-09T00:15:58.678Z,4.50
2022-08-09T00:18:29.399Z,3.90
2022-08-09T00:20:56.479Z,4.40
2022-08-09T00:23:57.958Z,4.30
2022-08-09T00:26:12.349Z,5.03
2022-08-09T00:28:41.267Z,4.50
2022-08-09T00:31:09.330Z,4.10
2022-08-09T00:33:55.719Z,3.97
2022-08-09T00:36:29.774Z,4.83
2022-08-09T00:38:58.768Z,4.00
2022-08-09T00:44:13.719Z,3.90
2022-08-09T00:44:25.381Z,3.63
2022-08-09T00:46:56.380Z,3.80
2022-08-09T00:49:28.741Z,3.40
2022-08-09T00:52:05.237Z,3.43
2022-08-09T00:54:36.009Z,3.50
2022-08-09T00:57:08.874Z,3.50
2022-08-09T00:59:41.185Z,2.87
2022-08-09T01:02:19.322Z,2.43
2022-08-09T01:05:14.103Z,2.63
2022-08-09T01:07:59.969Z,2.20
2022-08-09T01:10:37.158Z,2.10
2022-08-09T01:13:31.029Z,2.17
2022-08-09T01:16:12.965Z,2.33
2022-08-09T01:18:47.468Z,2.87
2022-08-09T01:21:41.287Z,2.30
2022-08-09T01:24:39.145Z,2.27
2022-08-09T01:27:09.644Z,2.50
2022-08-09T01:29:56.739Z,2.50
2022-08-09T01:32:45.361Z,2.40
2022-08-09T01:35:39.264Z,2.33
2022-08-09T01:38:26.458Z,2.20
2022-08-09T01:41:09.578Z,2.20
2022-08-09T01:43:52.029Z,2.60
2022-08-09T01:46:41.688Z,2.80
2022-08-09T01:49:15.735Z,2.20
2022-08-09T01:51:53.633Z,2.40
2022-08-09T01:54:32.929Z,2.83
2022-08-09T01:57:04.538Z,2.50
2022-08-09T01:59:32.929Z,2.43
2022-08-09T02:02:23.465Z,2.20
2022-08-09T02:05:04.187Z,2.27
2022-08-09T02:08:38.590Z,2.30
2022-08-09T02:10:29.932Z,2.00
2022-08-09T02:13:00.336Z,2.07
2022-08-09T02:15:36.260Z,2.20
2022-08-09T02:18:20.640Z,2.20
2022-08-09T02:20:55.393Z,1.80
2022-08-09T02:24:06.092Z,2.30
2022-08-09T02:26:36.348Z,1.80
2022-08-09T02:29:24.480Z,1.63
2022-08-09T02:31:59.496Z,2.03
2022-08-09T02:34:41.679Z,1.53
2022-08-09T02:37:22.569Z,1.77
2022-08-09T02:40:03.342Z,1.70
2022-08-09T02:42:43.433Z,1.60
2022-08-09T02:45:15.169Z,1.53
2022-08-09T02:47:57.266Z,1.58
2022-08-09T02:50:54.340Z,1.70
2022-08-09T02:53:31.884Z,1.50
2022-08-09T02:56:03.881Z,1.27
2022-08-09T02:58:37.473Z,1.50
2022-08-09T03:01:10.693Z,1.50
2022-08-09T03:04:17.351Z,1.40
2022-08-09T03:06:27.995Z,1.60
2022-08-09T03:08:57.630Z,1.30
2022-08-09T03:11:30.029Z,1.17
2022-08-09T03:14:15.977Z,1.33
2022-08-09T03:16:47.370Z,1.20
2022-08-09T03:19:58.557Z,1.52
2022-08-09T03:22:12.549Z,1.43
2022-08-09T03:25:05.818Z,1.40
2022-08-09T03:27:45.385Z,1.43
2022-08-09T03:30:14.569Z,1.40
2022-08-09T03:33:05.642Z,1.50
2022-08-09T03:35:44.397Z,1.33
2022-08-09T03:38:28.879Z,1.10
2022-08-09T03:40:56.360Z,1.40
2022-08-09T03:43:23.069Z,1.30
2022-08-09T03:46:05.282Z,1.43
2022-08-09T03:48:37.327Z,1.30
2022-08-09T03:51:54.081Z,1.33
2022-08-09T03:53:59.012Z,1.40
2022-08-09T03:56:26.727Z,1.50
2022-08-09T03:58:54.670Z,1.30
2022-08-09T04:01:24.799Z,1.40
2022-08-09T04:04:02.122Z,1.30
2022-08-09T04:06:32.175Z,1.60
2022-08-09T04:09:02.783Z,1.17
2022-08-09T04:12:11.837Z,1.37
2022-08-09T04:15:00.213Z,1.67
2022-08-09T04:17:29.529Z,1.20
2022-08-09T04:19:57.067Z,1.30
2022-08-09T04:22:23.977Z,1.40
2022-08-09T04:24:55.010Z,1.70
2022-08-09T04:27:22.269Z,1.50
2022-08-09T04:29:50.297Z,1.27
2022-08-09T04:32:31.309Z,1.83
2022-08-09T04:35:01.376Z,1.27
2022-08-09T04:37:45.120Z,1.60
2022-08-09T04:40:19.207Z,1.53
2022-08-09T04:42:56.800Z,1.20
2022-08-09T04:45:24.044Z,1.10
2022-08-09T04:47:58.845Z,1.40
2022-08-09T04:50:35.115Z,1.40
2022-08-09T04:53:13.657Z,1.50
2022-08-09T04:55:57.369Z,1.50
2022-08-09T04:58:27.628Z,1.60
2022-08-09T05:00:55.665Z,1.50
2022-08-09T05:03:41.034Z,1.60
2022-08-09T05:06:25.743Z,1.50
2022-08-09T05:09:00.300Z,1.70
2022-08-09T05:11:32.525Z,1.90
2022-08-09T05:14:05.831Z,1.87
2022-08-09T05:16:43.514Z,2.07
2022-08-09T05:19:10.406Z,1.77
2022-08-09T05:21:47.379Z,1.87
2022-08-09T05:24:24.186Z,1.80
2022-08-09T05:26:51.931Z,1.60
2022-08-09T05:29:24.103Z,2.33
2022-08-09T05:31:58.434Z,1.87
2022-08-09T05:34:31.724Z,2.10
2022-08-09T05:37:06.679Z,1.83
2022-08-09T05:39:43.153Z,1.60
2022-08-09T05:42:17.552Z,1.47
2022-08-09T05:44:50.957Z,1.80
2022-08-09T05:47:19.802Z,1.90
2022-08-09T05:50:31.296Z,2.10
2022-08-09T05:52:38.513Z,1.93
2022-08-09T05:55:07.223Z,2.00
2022-08-09T05:57:50.937Z,1.77
2022-08-09T06:00:23.544Z,1.80
2022-08-09T06:02:54.357Z,2.00
2022-08-09T06:05:31.148Z,1.80
2022-08-09T06:08:11.168Z,1.90
2022-08-09T06:10:38.527Z,1.97
2022-08-09T06:13:18.757Z,2.10
2022-08-09T06:15:51.443Z,2.40
2022-08-09T06:18:23.728Z,1.87
2022-08-09T06:20:56.926Z,1.80
2022-08-09T06:23:58.537Z,1.70
2022-08-09T06:26:13.619Z,1.80
2022-08-09T06:28:43.451Z,1.70
2022-08-09T06:31:11.120Z,2.20
2022-08-09T06:33:40.735Z,1.90
2022-08-09T06:36:11.886Z,1.60
2022-08-09T06:38:47.318Z,1.80
2022-08-09T06:41:19.173Z,1.90
2022-08-09T06:43:48.349Z,2.30
2022-08-09T06:46:40.402Z,2.53
2022-08-09T06:49:03.091Z,2.20
2022-08-09T06:51:30.212Z,1.87
2022-08-09T06:54:01.003Z,1.50
2022-08-09T06:56:30.714Z,1.70
2022-08-09T07:00:50.510Z,1.60
2022-08-09T07:01:54.470Z,1.70
2022-08-09T07:04:26.924Z,2.00
2022-08-09T07:07:00.677Z,3.10
2022-08-09T07:09:55.277Z,2.07
2022-08-09T07:12:18.140Z,1.77
2022-08-09T07:14:50.915Z,1.90
2022-08-09T07:17:20.204Z,1.83
2022-08-09T07:19:50.630Z,1.90
2022-08-09T07:22:18.407Z,1.80
2022-08-09T07:24:49.480Z,1.53
2022-08-09T07:27:26.356Z,2.70
2022-08-09T07:30:01.831Z,2.33
2022-08-09T07:32:32.563Z,1.80
2022-08-09T07:35:11.599Z,1.83
2022-08-09T07:37:45.630Z,1.50
2022-08-09T07:40:17.211Z,1.60
2022-08-09T07:42:54.461Z,1.60
2022-08-09T07:45:37.731Z,1.53
2022-08-09T07:48:25.359Z,1.80
2022-08-09T07:51:09.178Z,1.63
2022-08-09T07:54:04.507Z,1.70
2022-08-09T07:56:30.822Z,1.60
2022-08-09T07:58:59.430Z,1.60
2022-08-09T08:01:33.121Z,1.70
2022-08-09T08:04:04.744Z,1.60
2022-08-09T08:06:37.582Z,2.03
2022-08-09T08:09:35.487Z,1.40
2022-08-09T08:12:27.569Z,2.17
2022-08-09T08:14:55.095Z,1.60
2022-08-09T08:17:35.336Z,1.50
2022-08-09T08:20:12.567Z,1.50
2022-08-09T08:22:39.517Z,1.93
2022-08-09T08:25:13.123Z,1.80
2022-08-09T08:27:41.276Z,1.60
2022-08-09T08:30:11.731Z,1.50
2022-08-09T08:32:52.455Z,1.50
2022-08-09T08:35:22.462Z,1.50
2022-08-09T08:38:02.017Z,1.63
2022-08-09T08:40:33.579Z,1.63
2022-08-09T08:43:03.336Z,1.30
2022-08-09T08:45:59.610Z,1.43
2022-08-09T08:48:37.251Z,1.37
2022-08-09T08:51:04.479Z,1.40
2022-08-09T08:53:37.016Z,1.57
2022-08-09T08:56:06.902Z,1.80
2022-08-09T08:58:35.915Z,1.50
2022-08-09T09:01:08.611Z,1.80
2022-08-09T09:03:37.571Z,1.63
2022-08-09T09:06:07.316Z,1.37
2022-08-09T09:08:40.828Z,1.03
2022-08-09T09:11:13.877Z,1.10
2022-08-09T09:13:57.187Z,1.40
2022-08-09T09:16:32.428Z,1.17
2022-08-09T09:19:37.732Z,1.20
2022-08-09T09:22:12.526Z,1.23
2022-08-09T09:24:43.459Z,1.07
2022-08-09T09:27:22.054Z,1.00
2022-08-09T09:33:13.925Z,1.17
2022-08-09T09:36:02.242Z,1.10
2022-08-09T09:38:49.760Z,0.97
2022-08-09T09:41:49.359Z,0.90
2022-08-09T09:44:25.520Z,0.97
2022-08-09T09:47:09.765Z,0.90
2022-08-09T09:50:06.852Z,0.90
2022-08-09T09:52:36.276Z,0.90
2022-08-09T09:55:24.110Z,0.97
2022-08-09T09:58:15.729Z,1.67
2022-08-09T10:00:54.877Z,1.17
2022-08-09T10:03:57.687Z,1.10
2022-08-09T10:06:42.891Z,1.83
2022-08-09T10:09:22.503Z,1.60
2022-08-09T10:12:12.837Z,1.63
2022-08-09T10:14:51.621Z,1.40
2022-08-09T10:17:39.488Z,1.77
2022-08-09T10:20:32.657Z,1.60
2022-08-09T10:23:21.202Z,1.70
2022-08-09T10:26:04.848Z,1.43
2022-08-09T10:28:38.483Z,1.60
2022-08-09T10:34:08.174Z,1.97
2022-08-09T10:36:43.427Z,2.90
2022-08-09T10:39:15.893Z,3.55
2022-08-09T10:41:45.386Z,2.10
2022-08-09T10:44:12.575Z,1.98
2022-08-09T10:47:01.405Z,2.33
2022-08-09T10:49:54.285Z,1.77
2022-08-09T10:53:10.114Z,1.98
2022-08-09T10:55:57.962Z,1.77
2022-08-09T10:58:37.453Z,2.25
2022-08-09T11:03:15.768Z,1.50
2022-08-09T11:04:27.897Z,1.75
2022-08-09T11:07:01.555Z,1.48
2022-08-09T11:09:47.986Z,1.70
2022-08-09T11:12:17.417Z,2.50
2022-08-09T11:14:55.878Z,1.88
2022-08-09T11:17:24.585Z,2.00
2022-08-09T11:20:11.351Z,1.95
2022-08-09T11:22:47.302Z,2.67
2022-08-09T11:25:36.137Z,1.80
2022-08-09T11:28:33.805Z,1.88
2022-08-09T11:31:03.805Z,1.70
2022-08-09T11:33:50.367Z,1.67
2022-08-09T11:36:30.347Z,1.63
2022-08-09T11:39:03.637Z,1.67
2022-08-09T11:41:37.836Z,1.80
2022-08-09T11:44:08.223Z,2.20
2022-08-09T11:46:54.887Z,1.50
2022-08-09T11:50:54.842Z,2.00
2022-08-09T11:53:16.642Z,2.20
2022-08-09T11:55:53.494Z,2.38
2022-08-09T11:58:33.726Z,2.27
2022-08-09T12:01:37.361Z,2.03
2022-08-09T12:04:01.048Z,2.10
2022-08-09T12:06:32.541Z,1.52
2022-08-09T12:09:05.203Z,1.63
2022-08-09T12:11:37.927Z,1.38
2022-08-09T12:14:41.062Z,1.33
2022-08-09T12:17:27.531Z,1.52
2022-08-09T12:19:59.562Z,1.20
2022-08-09T12:22:29.193Z,1.17
2022-08-09T12:25:16.408Z,1.67
2022-08-09T12:29:15.614Z,1.30
2022-08-09T12:30:36.628Z,1.50
2022-08-09T12:33:05.731Z,0.95
2022-08-09T12:35:41.083Z,1.50
2022-08-09T12:38:37.459Z,1.75
2022-08-09T12:41:07.318Z,1.38
2022-08-09T12:44:06.625Z,1.30
2022-08-09T12:46:24.360Z,1.70
2022-08-09T12:48:55.609Z,1.35
2022-08-09T12:51:52.828Z,1.65
2022-08-09T12:54:10.597Z,1.40
2022-08-09T12:56:55.374Z,1.60
2022-08-09T12:59:24.407Z,1.50
2022-08-09T13:02:09.393Z,1.98
2022-08-09T13:04:38.720Z,1.95
2022-08-09T13:07:13.784Z,2.08
2022-08-09T13:09:52.762Z,1.60
2022-08-09T13:12:22.876Z,2.17
2022-08-09T13:14:53.799Z,2.10
2022-08-09T13:20:14.264Z,1.85
2022-08-09T13:23:05.185Z,2.50
2022-08-09T13:25:42.871Z,2.03
2022-08-09T13:28:19.038Z,2.20
2022-08-09T13:32:17.771Z,2.25
2022-08-09T13:33:55.036Z,1.95
2022-08-09T13:36:24.760Z,1.90
2022-08-09T13:41:17.422Z,1.80
2022-08-09T13:42:05.061Z,1.70
2022-08-09T13:44:33.471Z,1.90
2022-08-09T13:47:27.765Z,2.20
2022-08-09T13:49:57.265Z,2.40
2022-08-09T13:52:28.532Z,2.00
2022-08-09T13:54:59.127Z,2.15
2022-08-09T13:57:35.645Z,1.92
2022-08-09T14:00:16.726Z,1.67
2022-08-09T14:03:04.609Z,1.42
2022-08-09T14:05:56.554Z,1.83
2022-08-09T14:08:21.613Z,1.80
2022-08-09T14:10:50.326Z,1.95
2022-08-09T14:16:09.895Z,2.05
2022-08-09T14:18:38.691Z,2.05
2022-08-09T14:21:11.324Z,1.45
2022-08-09T14:23:40.723Z,1.88
2022-08-09T14:26:25.275Z,1.85
2022-08-09T14:28:52.353Z,1.80
2022-08-09T14:31:19.314Z,1.90
2022-08-09T14:33:52.124Z,2.10
2022-08-09T14:36:21.634Z,2.20
2022-08-09T14:38:52.943Z,2.35
2022-08-09T14:41:34.540Z,2.10
2022-08-09T14:44:11.412Z,2.17
2022-08-09T14:47:03.190Z,2.90
2022-08-09T14:49:26.868Z,2.70
2022-08-09T14:51:58.439Z,2.92
2022-08-09T14:54:27.687Z,3.10
2022-08-09T14:56:58.866Z,3.47
2022-08-09T14:59:28.422Z,3.45
2022-08-09T15:01:56.081Z,3.50
2022-08-09T15:04:23.705Z,3.92
2022-08-09T15:06:51.673Z,4.40
2022-08-09T15:10:03.516Z,4.25
2022-08-09T15:12:07.766Z,4.35
2022-08-09T15:14:38.531Z,5.90
2022-08-09T15:17:11.325Z,6.63
2022-08-09T15:19:54.617Z,5.07
2022-08-09T15:22:26.170Z,5.00
2022-08-09T15:24:54.285Z,5.70
2022-08-09T15:27:21.405Z,7.30
2022-08-09T15:30:58.430Z,6.78
2022-08-09T15:32:36.844Z,6.13
2022-08-09T15:35:18.277Z,10.65
2022-08-09T15:37:56.844Z,7.10
2022-08-09T15:40:43.943Z,9.50
2022-08-09T15:43:13.629Z,7.93
2022-08-09T15:46:07.311Z,14.20
2022-08-09T15:48:30.609Z,13.93
2022-08-09T15:51:00.021Z,11.57
2022-08-09T15:54:08.159Z,11.85
2022-08-09T15:56:29.232Z,18.13
2022-08-09T15:59:00.923Z,34.42
2022-08-09T16:01:31.402Z,37.15
2022-08-09T16:04:02.094Z,41.47
2022-08-09T16:06:35.435Z,29.65
2022-08-09T16:09:06.105Z,49.20
2022-08-09T16:11:33.810Z,84.43
2022-08-09T16:14:06.471Z,60.78
2022-08-09T16:16:42.055Z,29.10
2022-08-09T16:19:13.800Z,41.40
2022-08-09T16:21:42.199Z,25.20
2022-08-09T16:24:29.824Z,43.00
2022-08-09T16:27:01.174Z,31.20
2022-08-09T16:29:37.623Z,31.15
2022-08-09T16:32:19.002Z,28.73
2022-08-09T16:34:56.470Z,58.45
2022-08-09T16:37:55.932Z,26.42
2022-08-09T16:40:13.984Z,26.20
2022-08-09T16:42:47.903Z,40.15
2022-08-09T16:45:19.871Z,19.27
2022-08-09T16:50:34.840Z,19.25
2022-08-09T16:53:05.883Z,22.45
2022-08-09T16:56:00.241Z,21.08
2022-08-09T16:58:20.923Z,15.88
2022-08-09T17:00:48.684Z,13.55
2022-08-09T17:03:20.913Z,28.00
2022-08-09T17:06:06.973Z,21.00
2022-08-09T17:08:45.939Z,16.30
2022-08-09T17:11:24.410Z,14.50
2022-08-09T17:14:01.090Z,12.57
2022-08-09T17:16:29.229Z,11.65
2022-08-09T17:18:56.709Z,15.60
2022-08-09T17:21:25.134Z,12.48
2022-08-09T17:24:27.139Z,9.85
2022-08-09T17:26:47.706Z,10.02
2022-08-09T17:29:20.422Z,9.32
2022-08-09T17:31:49.319Z,11.82
2022-08-09T17:35:00.961Z,11.88
2022-08-09T17:37:04.146Z,7.95
2022-08-09T17:39:52.972Z,11.13
2022-08-09T17:42:42.188Z,7.55
2022-08-09T17:45:06.573Z,5.95
2022-08-09T17:47:49.771Z,6.00
2022-08-09T17:50:36.502Z,4.35
2022-08-09T17:53:10.449Z,3.75
2022-08-09T17:55:48.816Z,3.25
2022-08-09T17:58:19.234Z,2.70
2022-08-09T18:00:48.038Z,2.78
2022-08-09T18:03:17.589Z,3.92
2022-08-09T18:05:45.291Z,1.38
2022-08-09T18:08:21.889Z,1.15
2022-08-09T18:11:00.776Z,1.50
2022-08-09T18:13:43.095Z,1.20
2022-08-09T18:16:16.955Z,1.30
2022-08-09T18:18:56.581Z,1.45
2022-08-09T18:21:24.507Z,1.00
2022-08-09T18:24:09.734Z,1.00
2022-08-09T18:26:46.205Z,1.15
2022-08-09T18:30:39.958Z,1.10
2022-08-09T18:32:03.093Z,1.40
2022-08-09T18:34:32.733Z,1.10
2022-08-09T18:36:59.445Z,1.20
2022-08-09T18:39:32.161Z,0.82
2022-08-09T18:42:01.191Z,0.90
2022-08-09T18:44:28.159Z,1.00
2022-08-09T18:47:08.252Z,1.30
2022-08-09T18:49:43.573Z,1.17
2022-08-09T18:52:15.815Z,1.08
2022-08-09T18:54:52.493Z,1.00
2022-08-09T18:57:22.227Z,1.20
2022-08-09T18:59:55.469Z,1.27
2022-08-09T19:02:31.829Z,1.20
2022-08-09T19:05:14.215Z,0.93
2022-08-09T19:07:51.529Z,0.98
2022-08-09T19:10:36.985Z,1.17
2022-08-09T19:13:20.919Z,1.10
2022-08-09T19:15:55.547Z,1.20
2022-08-09T19:18:37.440Z,1.10
2022-08-09T19:21:09.651Z,1.05
2022-08-09T19:24:39.577Z,1.02
2022-08-09T19:26:31.069Z,1.00
2022-08-09T19:29:15.128Z,0.93
2022-08-09T19:31:46.357Z,1.45
2022-08-09T19:34:22.136Z,1.03
2022-08-09T19:36:55.859Z,1.10
2022-08-09T19:39:28.907Z,2.63
2022-08-09T19:42:14.622Z,1.25
2022-08-09T19:44:43.029Z,1.40
2022-08-09T19:47:11.122Z,1.17
2022-08-09T19:50:07.060Z,1.13
2022-08-09T19:52:27.211Z,1.42
2022-08-09T19:54:55.381Z,1.45
2022-08-09T19:57:25.809Z,1.67
2022-08-09T20:00:07.044Z,2.85
2022-08-09T20:04:12.726Z,1.75
2022-08-09T20:05:23.604Z,1.60
2022-08-09T20:07:57.031Z,1.30
2022-08-09T20:10:36.543Z,1.17
2022-08-09T20:13:06.180Z,1.67
2022-08-09T20:16:37.682Z,1.40
2022-08-09T20:18:22.403Z,1.15
2022-08-09T20:20:51.214Z,1.20
2022-08-09T20:23:21.067Z,1.35
2022-08-09T20:25:51.962Z,1.05
2022-08-09T20:28:27.483Z,1.10
2022-08-09T20:31:04.532Z,1.20
2022-08-09T20:33:39.048Z,1.42
2022-08-09T20:36:08.832Z,1.50
2022-08-09T20:39:02.642Z,1.05
2022-08-09T20:41:34.721Z,1.23
2022-08-09T20:44:09.800Z,1.35
2022-08-09T20:46:42.782Z,1.23
2022-08-09T20:49:15.800Z,1.27
2022-08-09T20:51:43.530Z,1.08
2022-08-09T20:54:16.654Z,1.23
2022-08-09T20:56:46.667Z,1.40
2022-08-09T20:59:17.219Z,1.50
2022-08-09T21:01:51.230Z,1.20
2022-08-09T21:05:51.900Z,1.23
2022-08-09T21:07:11.770Z,0.82
2022-08-09T21:09:56.769Z,1.55
2022-08-09T21:15:23.788Z,1.10
2022-08-09T21:18:23.587Z,1.10
2022-08-09T21:20:50.272Z,1.40
2022-08-09T21:23:21.555Z,1.00
2022-08-09T21:25:59.511Z,0.98
2022-08-09T21:28:36.134Z,0.90
2022-08-09T21:31:16.355Z,1.00
2022-08-09T21:33:52.523Z,1.33
2022-08-09T21:36:27.823Z,1.10
2022-08-09T21:38:57.751Z,1.20
2022-08-09T21:42:05.478Z,1.50
2022-08-09T21:44:33.814Z,1.30
2022-08-09T21:47:07.578Z,1.13
2022-08-09T21:49:40.633Z,1.10
2022-08-09T21:52:17.019Z,1.40
2022-08-09T21:55:03.196Z,1.50
2022-08-09T21:57:39.459Z,1.20
2022-08-09T22:00:32.558Z,1.47
2022-08-09T22:03:04.610Z,1.20
2022-08-09T22:05:36.109Z,1.80
2022-08-09T22:08:13.674Z,1.30
2022-08-09T22:11:00.254Z,1.10
2022-08-09T22:13:33.909Z,1.17
2022-08-09T22:16:01.319Z,1.10
2022-08-09T22:18:30.862Z,1.30
2022-08-09T22:21:00.002Z,0.90
2022-08-09T22:23:35.571Z,1.27
2022-08-09T22:26:34.310Z,1.30
2022-08-09T22:29:06.929Z,1.17
2022-08-09T22:31:36.068Z,1.30
2022-08-09T22:34:03.518Z,1.30
2022-08-09T22:36:37.338Z,1.20
2022-08-09T22:39:46.875Z,1.60
2022-08-09T22:42:01.673Z,1.30
2022-08-09T22:44:32.644Z,1.30
2022-08-09T22:48:15.227Z,1.27
2022-08-09T22:49:47.300Z,1.27
2022-08-09T22:52:18.752Z,1.50
2022-08-09T22:54:47.443Z,1.47
2022-08-09T22:57:14.845Z,1.30
2022-08-09T22:59:57.101Z,1.23
2022-08-09T23:02:25.460Z,1.30
2022-08-09T23:04:54.678Z,1.50
2022-08-09T23:08:21.750Z,1.73
2022-08-09T23:10:32.307Z,1.30
2022-08-09T23:12:59.921Z,2.00
2022-08-09T23:15:28.682Z,3.13
2022-08-09T23:17:56.018Z,2.00
2022-08-09T23:20:24.177Z,1.80
2022-08-09T23:22:51.060Z,1.90
2022-08-09T23:25:17.826Z,1.73
2022-08-09T23:28:09.504Z,1.60
2022-08-09T23:30:31.602Z,1.60
2022-08-09T23:32:58.558Z,1.40
2022-08-09T23:35:25.275Z,1.60
2022-08-09T23:37:52.144Z,1.53
2022-08-09T23:40:19.229Z,2.57
2022-08-09T23:42:46.050Z,2.30
2022-08-09T23:45:37.864Z,1.80
2022-08-09T23:47:59.807Z,1.47
2022-08-09T23:50:26.707Z,1.53
2022-08-09T23:52:53.792Z,2.13
2022-08-09T23:55:21.397Z,1.90
2022-08-09T23:58:10.663Z,1.70
